Time;durP1;ratioP1;P1;durP2;ratioP2;P2;SDS_P1;SDS_P2;PMS_P1;PMS_P2;Temp;Humidity;BMP_temperature;BMP_pressure;BME280_temperature;BME280_humidity;BME280_pressure;Samples;Min_cycle;Max_cycle;Signal;HPM_P1;HPM_P2
2023/03/25 00:00:14;;;;;;;36.80;14.50;;;10.20;99.90;;;;;;5012426;28;20037;-64
2023/03/25 00:02:40;;;;;;;7.68;1.60;;;10.10;99.90;;;;;;5014179;28;20487;-64
2023/03/25 00:05:07;;;;;;;30.55;13.82;;;10.10;99.90;;;;;;4993238;28;20045;-63
2023/03/25 00:07:32;;;;;;;11.13;3.03;;;10.10;99.90;;;;;;5010073;28;20104;-64
2023/03/25 00:09:58;;;;;;;8.77;3.88;;;10.10;99.90;;;;;;5012404;28;20053;-64
2023/03/25 00:12:23;;;;;;;4.60;1.60;;;10.10;99.90;;;;;;5010778;28;20030;-64
2023/03/25 00:14:57;;;;;;;6.00;2.20;;;10.00;99.90;;;;;;5013666;28;20475;-64
2023/03/25 00:17:27;;;;;;;6.63;2.50;;;10.00;99.90;;;;;;4995513;28;20053;-64
2023/03/25 00:20:01;;;;;;;4.93;1.95;;;10.00;99.90;;;;;;4991749;28;20053;-64
2023/03/25 00:22:26;;;;;;;7.10;2.22;;;10.00;99.90;;;;;;5012946;28;20037;-64
2023/03/25 00:24:52;;;;;;;9.23;3.10;;;10.00;99.90;;;;;;5011769;28;20415;-64
2023/03/25 00:27:18;;;;;;;8.27;2.58;;;10.00;99.90;;;;;;5011746;28;20495;-64
2023/03/25 00:29:44;;;;;;;7.93;2.40;;;10.00;99.90;;;;;;5010593;28;20534;-63
2023/03/25 00:32:12;;;;;;;4.60;2.85;;;9.90;99.90;;;;;;5011690;28;20104;-64
2023/03/25 00:34:46;;;;;;;6.82;3.08;;;10.00;99.90;;;;;;5011428;28;20034;-63
2023/03/25 00:37:16;;;;;;;6.35;2.90;;;9.90;99.90;;;;;;4993363;28;20503;-63
2023/03/25 00:39:45;;;;;;;5.85;3.20;;;9.90;99.90;;;;;;5012247;28;20046;-63
2023/03/25 00:42:12;;;;;;;4.88;3.35;;;9.90;99.90;;;;;;5013495;28;20037;-63
2023/03/25 00:44:38;;;;;;;8.80;3.13;;;9.90;99.90;;;;;;5011980;28;20046;-64
2023/03/25 00:47:04;;;;;;;6.40;3.40;;;9.90;99.90;;;;;;5011192;28;20042;-63
2023/03/25 00:49:30;;;;;;;5.15;3.35;;;9.90;99.90;;;;;;5010292;28;20403;-64
2023/03/25 00:51:55;;;;;;;6.85;3.45;;;9.90;99.90;;;;;;5011768;28;20041;-63
2023/03/25 00:54:22;;;;;;;6.57;3.65;;;9.80;99.90;;;;;;5010816;28;20115;-63
2023/03/25 00:56:48;;;;;;;9.30;4.30;;;9.80;99.90;;;;;;5007862;28;20133;-63
2023/03/25 00:59:14;;;;;;;8.60;3.78;;;9.90;99.90;;;;;;4994116;28;20084;-64
2023/03/25 01:01:40;;;;;;;10.10;4.28;;;9.80;99.90;;;;;;5011746;28;20108;-64
2023/03/25 01:04:11;;;;;;;7.18;3.88;;;9.80;99.90;;;;;;5009233;28;20105;-64
2023/03/25 01:06:42;;;;;;;9.50;4.65;;;9.80;99.90;;;;;;5008224;28;20046;-63
2023/03/25 01:09:10;;;;;;;10.80;3.92;;;9.80;99.90;;;;;;5011481;28;20033;-64
2023/03/25 01:11:37;;;;;;;10.82;4.05;;;9.80;99.90;;;;;;5010796;28;20128;-64
2023/03/25 01:14:06;;;;;;;8.60;3.63;;;9.80;99.90;;;;;;4994252;28;20060;-64
2023/03/25 01:16:32;;;;;;;9.90;4.25;;;9.70;99.90;;;;;;4998732;28;20033;-64
2023/03/25 01:18:57;;;;;;;9.20;3.90;;;9.70;99.90;;;;;;5013775;28;20046;-64
2023/03/25 01:21:23;;;;;;;5.97;3.22;;;9.70;99.90;;;;;;5014956;28;20050;-63
2023/03/25 01:23:48;;;;;;;8.73;3.40;;;9.70;99.90;;;;;;5010339;28;20076;-63
2023/03/25 01:26:14;;;;;;;9.43;3.40;;;9.70;99.90;;;;;;5002767;28;20039;-64
2023/03/25 01:28:43;;;;;;;9.57;3.10;;;9.70;99.90;;;;;;5007464;28;20480;-64
2023/03/25 01:31:12;;;;;;;8.77;3.40;;;9.70;99.90;;;;;;5010115;28;20042;-64
2023/03/25 01:33:37;;;;;;;13.48;3.53;;;9.70;99.90;;;;;;5010154;28;20037;-64
2023/03/25 01:36:08;;;;;;;9.30;3.33;;;9.70;99.90;;;;;;5009823;28;20034;-64
2023/03/25 01:38:34;;;;;;;7.07;3.40;;;9.60;99.90;;;;;;4992501;28;20034;-64
2023/03/25 01:41:00;;;;;;;7.97;3.05;;;9.70;99.90;;;;;;5010963;28;20042;-64
2023/03/25 01:43:25;;;;;;;9.10;3.03;;;9.70;99.90;;;;;;5008229;28;20046;-64
2023/03/25 01:45:51;;;;;;;10.52;3.45;;;9.70;99.90;;;;;;5018796;28;20046;-63
2023/03/25 01:48:34;;;;;;;10.73;3.00;;;9.70;99.90;;;;;;4993493;28;20557;-63
2023/03/25 01:51:12;;;;;;;8.40;2.58;;;9.70;99.90;;;;;;5009521;28;20519;-63
2023/03/25 01:53:38;;;;;;;14.55;3.83;;;9.70;99.90;;;;;;5010198;28;20040;-64
2023/03/25 01:56:07;;;;;;;9.85;2.85;;;9.60;99.90;;;;;;5021091;28;20038;-64
2023/03/25 01:58:34;;;;;;;10.85;2.80;;;9.60;99.90;;;;;;5014658;28;20038;-64
2023/03/25 02:01:02;;;;;;;9.85;2.53;;;9.50;99.90;;;;;;5008574;28;20061;-64
2023/03/25 02:03:35;;;;;;;8.35;3.22;;;9.40;99.90;;;;;;5000833;28;20033;-65
2023/03/25 02:06:08;;;;;;;13.80;3.25;;;9.40;99.90;;;;;;5013539;28;20045;-64
2023/03/25 02:08:40;;;;;;;11.70;2.90;;;9.30;99.90;;;;;;5014024;28;20124;-65
2023/03/25 02:11:07;;;;;;;10.00;3.10;;;9.30;99.90;;;;;;4995752;28;20042;-64
2023/03/25 02:13:35;;;;;;;12.38;2.55;;;9.30;99.90;;;;;;5011685;28;20063;-64
2023/03/25 02:16:13;;;;;;;11.75;2.80;;;9.20;99.90;;;;;;5011051;28;20037;-64
2023/03/25 02:19:13;;;;;;;10.32;2.85;;;9.20;99.90;;;;;;5014029;28;20173;-65
2023/03/25 02:21:48;;;;;;;11.88;2.38;;;9.20;99.90;;;;;;4997981;28;20117;-64
2023/03/25 02:24:42;;;;;;;9.98;2.40;;;9.20;99.90;;;;;;5018001;28;20116;-65
2023/03/25 02:27:40;;;;;;;10.48;1.77;;;9.20;99.90;;;;;;5009900;28;20042;-64
2023/03/25 02:30:09;;;;;;;17.13;2.97;;;9.10;99.90;;;;;;5004261;28;20052;-63
2023/03/25 02:33:02;;;;;;;11.25;2.33;;;9.10;99.90;;;;;;5013954;28;20180;-63
2023/03/25 02:35:51;;;;;;;11.50;2.67;;;9.10;99.90;;;;;;5012966;28;20431;-63
2023/03/25 02:38:39;;;;;;;7.90;2.53;;;9.00;99.90;;;;;;5012723;28;20041;-63
2023/03/25 02:41:47;;;;;;;11.60;2.33;;;9.00;99.90;;;;;;5009056;28;20088;-63
2023/03/25 02:44:19;;;;;;;12.60;3.22;;;9.00;99.90;;;;;;4994873;28;20089;-63
2023/03/25 02:46:50;;;;;;;9.20;2.63;;;9.00;99.90;;;;;;5005809;28;20046;-63
2023/03/25 02:49:37;;;;;;;13.65;2.63;;;9.00;99.90;;;;;;5013402;28;20048;-63
2023/03/25 02:52:13;;;;;;;13.25;2.92;;;9.00;99.90;;;;;;5013159;28;20117;-63
2023/03/25 02:54:43;;;;;;;17.00;3.67;;;8.90;99.90;;;;;;5019401;28;20511;-63
2023/03/25 02:57:12;;;;;;;14.20;2.70;;;8.90;99.90;;;;;;5013837;28;20038;-63
2023/03/25 02:59:38;;;;;;;12.55;2.40;;;8.90;99.90;;;;;;5012424;28;20116;-63
2023/03/25 03:02:07;;;;;;;16.38;3.28;;;8.90;99.90;;;;;;5011944;28;20037;-63
2023/03/25 03:04:55;;;;;;;14.35;2.85;;;8.90;99.90;;;;;;5012315;28;20043;-63
2023/03/25 03:07:26;;;;;;;15.73;3.13;;;8.90;99.90;;;;;;5018118;28;20038;-63
2023/03/25 03:10:34;;;;;;;12.15;3.13;;;8.90;99.90;;;;;;5012666;28;20479;-63
2023/03/25 03:13:49;;;;;;;16.40;3.15;;;8.90;99.90;;;;;;4988049;28;20049;-63
2023/03/25 03:16:30;;;;;;;11.68;2.67;;;8.90;99.90;;;;;;5011151;28;20125;-63
2023/03/25 03:19:01;;;;;;;15.15;3.17;;;8.90;99.90;;;;;;4998070;28;20046;-63
2023/03/25 03:21:39;;;;;;;14.23;2.53;;;8.90;99.90;;;;;;5017369;28;20438;-63
2023/03/25 03:24:16;;;;;;;14.93;2.97;;;8.90;99.90;;;;;;5012934;28;20503;-63
2023/03/25 03:27:13;;;;;;;13.55;3.00;;;8.90;99.90;;;;;;4990886;28;20152;-63
2023/03/25 03:29:54;;;;;;;13.35;2.58;;;8.90;99.90;;;;;;5005928;28;20054;-64
2023/03/25 03:32:27;;;;;;;12.82;3.47;;;8.90;99.90;;;;;;4984396;28;20041;-64
2023/03/25 03:34:57;;;;;;;12.13;3.05;;;8.90;99.90;;;;;;5012746;28;20130;-64
2023/03/25 03:37:28;;;;;;;13.48;2.85;;;8.90;99.90;;;;;;5016854;28;20041;-63
2023/03/25 03:39:56;;;;;;;18.70;3.00;;;8.90;99.90;;;;;;5012564;28;20042;-63
2023/03/25 03:42:41;;;;;;;12.85;2.28;;;8.90;99.90;;;;;;5012820;28;20037;-63
2023/03/25 03:45:16;;;;;;;15.73;3.25;;;8.90;99.90;;;;;;5010850;28;20049;-64
2023/03/25 03:47:47;;;;;;;18.40;3.38;;;8.90;99.90;;;;;;5012030;28;20408;-63
2023/03/25 03:50:18;;;;;;;14.00;3.03;;;8.90;99.90;;;;;;5011303;28;20049;-63
2023/03/25 03:53:05;;;;;;;11.48;2.85;;;8.90;99.90;;;;;;5004973;28;20041;-64
2023/03/25 03:55:49;;;;;;;15.38;3.00;;;8.90;99.90;;;;;;5011181;28;20088;-63
2023/03/25 03:58:24;;;;;;;8.80;2.70;;;8.90;99.90;;;;;;5010447;28;20045;-63
2023/03/25 04:01:18;;;;;;;16.15;3.00;;;8.90;99.90;;;;;;4988355;28;20048;-64
2023/03/25 04:04:01;;;;;;;13.73;2.85;;;8.90;99.90;;;;;;5012297;28;20503;-64
2023/03/25 04:06:49;;;;;;;12.75;3.05;;;8.80;99.90;;;;;;5009683;28;20071;-64
2023/03/25 04:09:40;;;;;;;13.23;2.67;;;8.80;99.90;;;;;;5011318;28;20037;-64
2023/03/25 04:12:09;;;;;;;12.38;3.28;;;8.80;99.90;;;;;;5006078;28;20121;-64
2023/03/25 04:14:39;;;;;;;13.38;2.78;;;8.80;99.90;;;;;;4993767;28;20045;-63
2023/03/25 04:17:05;;;;;;;11.05;3.03;;;8.80;99.90;;;;;;5012214;28;20034;-63
2023/03/25 04:19:34;;;;;;;16.13;3.67;;;8.80;99.90;;;;;;5012306;28;20048;-63
2023/03/25 04:22:00;;;;;;;12.48;2.70;;;8.80;99.90;;;;;;4998784;28;20042;-63
2023/03/25 04:24:32;;;;;;;12.68;2.95;;;8.70;99.90;;;;;;5011815;28;20488;-63
2023/03/25 04:27:03;;;;;;;9.90;2.75;;;8.70;99.90;;;;;;5011594;28;20120;-63
2023/03/25 04:29:32;;;;;;;13.85;3.33;;;8.70;99.90;;;;;;5014856;28;20711;-63
2023/03/25 04:32:01;;;;;;;12.88;3.33;;;8.80;99.90;;;;;;5011481;28;20049;-63
2023/03/25 04:34:28;;;;;;;15.48;3.28;;;8.70;99.90;;;;;;5011033;28;20048;-63
2023/03/25 04:36:54;;;;;;;12.10;3.10;;;8.70;99.90;;;;;;5011135;28;20037;-63
2023/03/25 04:39:21;;;;;;;12.13;2.95;;;8.70;99.90;;;;;;5010716;28;20496;-63
2023/03/25 04:41:52;;;;;;;9.80;3.20;;;8.70;99.90;;;;;;5010393;28;20125;-63
2023/03/25 04:44:20;;;;;;;;;;;8.80;99.90;;;;;;5011437;28;20038;-63
2023/03/25 04:46:46;;;;;;;11.55;3.00;;;8.70;99.90;;;;;;5002472;28;19918;-63
2023/03/25 04:49:22;;;;;;;9.48;3.38;;;8.70;99.90;;;;;;5009735;28;20410;-63
2023/03/25 04:51:50;;;;;;;9.93;3.00;;;8.70;99.90;;;;;;5010080;28;20140;-64
2023/03/25 04:54:17;;;;;;;9.93;3.42;;;8.70;99.90;;;;;;5002202;28;20120;-65
2023/03/25 04:56:42;;;;;;;10.40;3.25;;;8.70;99.90;;;;;;5009600;28;20065;-64
2023/03/25 04:59:09;;;;;;;11.55;3.55;;;8.60;99.90;;;;;;5011258;28;20073;-63
2023/03/25 05:01:40;;;;;;;8.55;3.25;;;8.60;99.90;;;;;;5004640;28;20042;-63
2023/03/25 05:04:07;;;;;;;14.07;3.53;;;8.60;99.90;;;;;;5014683;28;20492;-63
2023/03/25 05:09:13;;;;;;;11.18;3.50;;;8.60;99.90;;;;;;5028435;28;20183;-65
2023/03/25 05:11:40;;;;;;;13.57;4.05;;;8.60;99.90;;;;;;5022482;28;20399;-64
2023/03/25 05:14:06;;;;;;;13.10;3.55;;;8.60;99.90;;;;;;5013796;28;20049;-63
2023/03/25 05:16:32;;;;;;;12.25;3.92;;;8.60;99.90;;;;;;5016585;28;20048;-63
2023/03/25 05:18:58;;;;;;;13.85;4.40;;;8.60;99.90;;;;;;5028587;28;20116;-63
2023/03/25 05:21:23;;;;;;;14.95;4.18;;;8.60;99.90;;;;;;5026754;28;20101;-63
2023/03/25 05:23:50;;;;;;;9.13;3.97;;;8.60;99.90;;;;;;5031121;28;20052;-64
2023/03/25 05:26:15;;;;;;;11.60;4.45;;;8.60;99.90;;;;;;5029634;28;20052;-63
2023/03/25 05:28:41;;;;;;;12.07;3.95;;;8.60;99.90;;;;;;5030618;28;20434;-63
2023/03/25 05:31:07;;;;;;;12.80;5.25;;;8.60;99.90;;;;;;5032488;28;20063;-63
2023/03/25 05:33:42;;;;;;;15.40;5.20;;;8.60;99.90;;;;;;5033745;28;20108;-65
2023/03/25 05:36:12;;;;;;;12.02;4.68;;;8.60;99.90;;;;;;5033635;28;20034;-65
2023/03/25 05:38:43;;;;;;;15.70;5.03;;;8.60;99.90;;;;;;5034391;28;20029;-65
2023/03/25 05:41:15;;;;;;;13.05;5.22;;;8.60;99.90;;;;;;5026597;28;20048;-65
2023/03/25 05:43:46;;;;;;;12.20;5.57;;;8.60;99.90;;;;;;5031751;28;20064;-65
2023/03/25 05:46:13;;;;;;;14.05;5.05;;;8.60;99.90;;;;;;5034604;28;20494;-65
2023/03/25 05:48:40;;;;;;;12.05;5.43;;;8.60;99.90;;;;;;5030890;28;20037;-65
2023/03/25 05:51:14;;;;;;;7.50;2.97;;;8.50;99.90;;;;;;5033707;28;20049;-65
2023/03/25 05:53:42;;;;;;;7.43;2.63;;;8.50;99.90;;;;;;5023457;28;20112;-65
2023/03/25 05:56:09;;;;;;;5.57;2.28;;;8.40;99.90;;;;;;5014914;28;20041;-65
2023/03/25 05:58:35;;;;;;;7.10;2.20;;;8.30;99.90;;;;;;5030376;28;20091;-64
2023/03/25 06:01:01;;;;;;;5.95;1.63;;;8.30;99.90;;;;;;5033690;28;20033;-65
2023/03/25 06:03:27;;;;;;;7.88;1.67;;;8.20;99.90;;;;;;5033921;28;20034;-64
2023/03/25 06:05:53;;;;;;;6.00;1.63;;;8.20;99.90;;;;;;5033575;28;20515;-65
2023/03/25 06:08:24;;;;;;;9.07;1.50;;;8.10;99.90;;;;;;5017563;28;20038;-65
2023/03/25 06:10:53;;;;;;;6.95;2.72;;;8.20;99.90;;;;;;5030232;28;20041;-64
2023/03/25 06:13:19;;;;;;;10.85;3.88;;;8.20;99.90;;;;;;5033422;28;20064;-64
2023/03/25 06:15:44;;;;;;;9.90;4.32;;;8.30;99.90;;;;;;5033392;28;21448;-64
2023/03/25 06:18:10;;;;;;;16.73;4.35;;;8.30;99.90;;;;;;5016119;28;20505;-64
2023/03/25 06:20:35;;;;;;;10.35;3.75;;;8.40;99.90;;;;;;5033744;28;20037;-63
2023/03/25 06:23:01;;;;;;;11.05;3.70;;;8.40;99.90;;;;;;5033544;28;20536;-64
2023/03/25 06:25:27;;;;;;;12.10;3.55;;;8.40;99.90;;;;;;5032466;28;20041;-64
2023/03/25 06:27:54;;;;;;;12.93;3.35;;;8.50;99.90;;;;;;5030343;28;20034;-64
2023/03/25 06:30:20;;;;;;;8.18;2.92;;;8.40;99.90;;;;;;5031669;28;20049;-63
2023/03/25 06:32:49;;;;;;;12.98;2.80;;;8.50;99.90;;;;;;5031506;28;20550;-64
2023/03/25 06:35:18;;;;;;;10.13;3.20;;;8.40;99.90;;;;;;5033314;28;20414;-64
2023/03/25 06:37:45;;;;;;;9.23;2.65;;;8.50;99.90;;;;;;5020392;28;20073;-64
2023/03/25 06:40:12;;;;;;;4.25;1.85;;;8.40;99.90;;;;;;5018888;28;20545;-64
2023/03/25 06:42:37;;;;;;;11.57;2.40;;;8.50;99.90;;;;;;5009467;28;20499;-64
2023/03/25 06:45:03;;;;;;;7.53;2.00;;;8.40;99.90;;;;;;5030544;28;20129;-63
2023/03/25 06:47:29;;;;;;;3.92;2.22;;;8.40;99.90;;;;;;5032721;28;20041;-63
2023/03/25 06:49:55;;;;;;;8.52;2.75;;;8.40;99.90;;;;;;5014173;28;20054;-63
2023/03/25 06:52:20;;;;;;;11.20;2.72;;;8.40;99.90;;;;;;5014856;28;20044;-64
2023/03/25 06:54:46;;;;;;;9.70;2.60;;;8.40;99.90;;;;;;5016165;28;20075;-63
2023/03/25 06:57:11;;;;;;;8.98;2.30;;;8.40;99.90;;;;;;5031334;28;20511;-63
2023/03/25 06:59:37;;;;;;;9.35;2.65;;;8.40;99.90;;;;;;5029989;28;20581;-64
2023/03/25 07:02:03;;;;;;;11.75;2.53;;;8.40;99.90;;;;;;5012976;28;20087;-64
2023/03/25 07:04:28;;;;;;;9.70;2.47;;;8.50;99.90;;;;;;5028535;28;20049;-63
2023/03/25 07:06:54;;;;;;;8.77;2.88;;;8.50;99.90;;;;;;5027098;28;20040;-64
2023/03/25 07:09:20;;;;;;;15.68;3.67;;;8.60;99.90;;;;;;5030512;28;20038;-64
2023/03/25 07:11:45;;;;;;;12.35;3.83;;;8.70;99.90;;;;;;5031198;28;20033;-64
2023/03/25 07:14:11;;;;;;;9.63;3.03;;;8.70;99.90;;;;;;5030791;28;20380;-64
2023/03/25 07:16:36;;;;;;;13.98;3.10;;;8.80;99.90;;;;;;5028261;28;20369;-64
2023/03/25 07:19:02;;;;;;;14.73;3.35;;;8.90;99.90;;;;;;5027126;28;20052;-64
2023/03/25 07:21:27;;;;;;;14.35;3.10;;;8.90;99.90;;;;;;5031660;28;20065;-64
2023/03/25 07:23:54;;;;;;;17.83;3.65;;;9.00;99.90;;;;;;5014209;28;20566;-63
2023/03/25 07:26:20;;;;;;;15.00;3.60;;;9.10;99.90;;;;;;5031081;28;20045;-64
2023/03/25 07:28:46;;;;;;;22.52;4.07;;;9.10;99.90;;;;;;5013338;28;20048;-64
2023/03/25 07:31:14;;;;;;;17.98;3.90;;;9.20;99.90;;;;;;5012727;28;20482;-64
2023/03/25 07:33:40;;;;;;;16.67;3.30;;;9.30;99.90;;;;;;5026963;28;20488;-64
2023/03/25 07:36:07;;;;;;;17.70;3.92;;;9.40;99.90;;;;;;5026138;28;20038;-64
2023/03/25 07:38:33;;;;;;;18.20;3.88;;;9.50;99.90;;;;;;5015888;28;20402;-64
2023/03/25 07:41:03;;;;;;;16.50;3.50;;;9.50;99.90;;;;;;5030372;28;20106;-64
2023/03/25 07:43:29;;;;;;;17.58;3.70;;;9.50;99.90;;;;;;5033001;28;20045;-64
2023/03/25 07:45:54;;;;;;;18.67;3.45;;;9.40;99.90;;;;;;5032916;28;20546;-64
2023/03/25 07:48:21;;;;;;;15.57;3.13;;;9.30;99.90;;;;;;5032262;28;20034;-64
2023/03/25 07:50:49;;;;;;;16.63;3.45;;;9.30;99.90;;;;;;5029306;28;20037;-64
2023/03/25 07:53:15;;;;;;;14.05;3.25;;;9.20;99.90;;;;;;5027280;28;20037;-64
2023/03/25 07:55:40;;;;;;;15.23;3.33;;;9.10;99.90;;;;;;5026325;28;20045;-64
2023/03/25 07:58:06;;;;;;;18.98;4.63;;;9.10;99.90;;;;;;5004321;28;20479;-65
2023/03/25 08:00:31;;;;;;;16.20;3.92;;;9.10;99.90;;;;;;5026831;28;20388;-65
2023/03/25 08:02:57;;;;;;;9.77;2.53;;;9.00;99.90;;;;;;5030264;28;20041;-65
2023/03/25 08:05:23;;;;;;;14.60;3.15;;;9.00;99.90;;;;;;5030567;28;20134;-65
2023/03/25 08:07:52;;;;;;;8.00;2.30;;;8.90;99.90;;;;;;5028368;28;20502;-65
2023/03/25 08:10:18;;;;;;;13.80;2.60;;;8.80;99.90;;;;;;5013009;28;20049;-66
2023/03/25 08:12:44;;;;;;;11.52;1.88;;;8.80;99.90;;;;;;5025927;28;20037;-65
2023/03/25 08:15:11;;;;;;;13.82;2.40;;;8.70;99.90;;;;;;5030389;28;20073;-66
2023/03/25 08:17:38;;;;;;;10.85;2.50;;;8.70;99.90;;;;;;5028358;28;20046;-66
2023/03/25 08:20:05;;;;;;;16.10;3.20;;;8.70;99.90;;;;;;5029224;28;20107;-65
2023/03/25 08:22:31;;;;;;;16.77;3.15;;;8.80;99.90;;;;;;5013398;28;20073;-64
2023/03/25 08:24:58;;;;;;;18.33;3.45;;;8.90;99.90;;;;;;5028426;28;20521;-64
2023/03/25 08:27:23;;;;;;;12.27;2.90;;;9.00;99.90;;;;;;5027747;28;20560;-65
2023/03/25 08:29:56;;;;;;;14.15;2.95;;;9.10;99.90;;;;;;5031817;28;20041;-64
2023/03/25 08:32:26;;;;;;;18.38;3.22;;;9.30;99.90;;;;;;5040439;28;20046;-64
2023/03/25 08:34:51;;;;;;;13.57;2.95;;;9.40;99.90;;;;;;5026196;28;20041;-63
2023/03/25 08:37:17;;;;;;;17.65;3.85;;;9.40;99.90;;;;;;5030799;28;20052;-64
2023/03/25 08:39:44;;;;;;;13.73;2.67;;;9.50;99.90;;;;;;5011686;28;20037;-64
2023/03/25 08:42:12;;;;;;;14.15;3.08;;;9.50;99.90;;;;;;5027630;28;20511;-65
2023/03/25 08:44:38;;;;;;;19.83;3.13;;;9.50;99.90;;;;;;5031785;28;20042;-64
2023/03/25 08:47:04;;;;;;;17.50;3.20;;;9.40;99.90;;;;;;5029439;28;20364;-65
2023/03/25 08:49:30;;;;;;;23.48;3.63;;;9.40;99.90;;;;;;5028262;28;20453;-64
2023/03/25 08:51:57;;;;;;;13.05;3.10;;;9.40;99.90;;;;;;5029065;28;20045;-65
2023/03/25 08:54:24;;;;;;;15.77;3.20;;;9.30;99.90;;;;;;5030589;28;20036;-66
2023/03/25 08:56:50;;;;;;;14.02;3.25;;;9.30;99.90;;;;;;5026749;28;20042;-65
2023/03/25 08:59:16;;;;;;;17.35;3.22;;;9.30;99.90;;;;;;5027788;28;20037;-65
2023/03/25 09:01:42;;;;;;;12.32;3.05;;;9.40;99.90;;;;;;5028655;28;20107;-66
2023/03/25 09:04:08;;;;;;;13.48;3.42;;;9.40;99.90;;;;;;5033698;28;20052;-66
2023/03/25 09:06:33;;;;;;;18.42;3.47;;;9.40;99.90;;;;;;5017080;28;20037;-66
2023/03/25 09:08:59;;;;;;;16.67;3.47;;;9.40;99.90;;;;;;5036394;28;20049;-66
2023/03/25 09:11:25;;;;;;;17.58;3.78;;;9.40;99.90;;;;;;5033308;28;20463;-66
2023/03/25 09:13:50;;;;;;;17.20;3.63;;;9.50;99.90;;;;;;5035536;28;20036;-66
2023/03/25 09:16:16;;;;;;;15.07;3.65;;;9.50;99.90;;;;;;5034536;28;20092;-65
2023/03/25 09:18:42;;;;;;;21.13;4.22;;;9.60;99.90;;;;;;5017739;28;20044;-66
2023/03/25 09:21:07;;;;;;;17.77;3.20;;;9.60;99.90;;;;;;5033453;28;20044;-66
2023/03/25 09:23:33;;;;;;;15.38;3.05;;;9.60;99.90;;;;;;5032947;28;20069;-66
2023/03/25 09:26:01;;;;;;;13.40;3.38;;;9.60;99.90;;;;;;5032328;28;20065;-66
2023/03/25 09:28:27;;;;;;;15.48;3.15;;;9.60;99.90;;;;;;5034270;28;20037;-66
2023/03/25 09:30:53;;;;;;;21.80;4.03;;;9.70;99.90;;;;;;5021941;28;20038;-66
2023/03/25 09:33:19;;;;;;;16.77;3.60;;;9.80;99.90;;;;;;5020106;28;20033;-66
2023/03/25 09:35:45;;;;;;;17.17;2.90;;;10.00;99.90;;;;;;5026793;28;20111;-66
2023/03/25 09:38:11;;;;;;;19.42;3.10;;;10.20;99.90;;;;;;5032410;28;20108;-66
2023/03/25 09:40:40;;;;;;;18.90;2.92;;;10.20;99.90;;;;;;5034493;28;20140;-66
2023/03/25 09:43:17;;;;;;;18.27;3.40;;;10.20;99.90;;;;;;5033104;28;20116;-66
2023/03/25 09:45:48;;;;;;;15.15;3.53;;;10.20;99.90;;;;;;5034620;28;20104;-66
2023/03/25 09:48:39;;;;;;;11.88;2.88;;;10.10;99.90;;;;;;5029523;28;20080;-67
2023/03/25 09:51:27;;;;;;;14.68;2.50;;;10.10;99.90;;;;;;5029411;28;20085;-66
2023/03/25 09:54:03;;;;;;;15.15;3.38;;;10.10;99.90;;;;;;5027958;28;20049;-65
2023/03/25 09:56:33;;;;;;;13.55;2.25;;;10.00;99.90;;;;;;5032577;28;20140;-66
2023/03/25 09:59:13;;;;;;;9.02;2.97;;;9.90;99.90;;;;;;5033819;28;20029;-66
2023/03/25 10:02:01;;;;;;;18.00;2.85;;;9.70;99.90;;;;;;5025835;28;20112;-65
2023/03/25 10:04:49;;;;;;;17.33;3.20;;;9.60;99.90;;;;;;5030786;28;20120;-66
2023/03/25 10:07:57;;;;;;;13.63;3.30;;;9.70;99.90;;;;;;5029720;28;20049;-65
2023/03/25 10:10:35;;;;;;;12.10;2.70;;;9.80;99.90;;;;;;5032054;28;20376;-65
2023/03/25 10:13:30;;;;;;;17.45;2.92;;;9.90;99.90;;;;;;5031381;28;20030;-65
2023/03/25 10:16:50;;;;;;;19.65;3.70;;;10.00;99.90;;;;;;5027020;28;20411;-65
2023/03/25 10:19:41;;;;;;;10.05;1.88;;;10.00;99.90;;;;;;4977058;28;20610;-66
2023/03/25 10:22:20;;;;;;;14.32;2.60;;;10.00;99.90;;;;;;5014210;28;20088;-65
2023/03/25 10:24:52;;;;;;;14.48;2.83;;;10.00;99.90;;;;;;5014661;28;20077;-65
2023/03/25 10:27:26;;;;;;;11.20;2.50;;;10.00;99.90;;;;;;5019707;28;20490;-65
2023/03/25 10:30:10;;;;;;;10.85;2.10;;;10.00;99.90;;;;;;5033404;28;20037;-65
2023/03/25 10:32:57;;;;;;;12.30;2.08;;;9.90;99.90;;;;;;5032781;28;20120;-65
2023/03/25 10:35:29;;;;;;;14.90;2.40;;;9.90;99.90;;;;;;5032766;28;20083;-65
2023/03/25 10:37:59;;;;;;;9.13;2.28;;;9.90;99.90;;;;;;5033487;28;20042;-64
2023/03/25 10:40:37;;;;;;;15.27;2.67;;;9.90;99.90;;;;;;5031811;28;20521;-65
2023/03/25 10:43:06;;;;;;;12.00;2.70;;;9.90;99.90;;;;;;5033454;28;20080;-65
2023/03/25 10:45:33;;;;;;;17.92;3.40;;;9.90;99.90;;;;;;5030937;28;20064;-65
2023/03/25 10:48:12;;;;;;;15.20;3.17;;;9.90;99.90;;;;;;5032442;28;20049;-65
2023/03/25 10:50:40;;;;;;;19.02;3.17;;;9.90;99.90;;;;;;5015644;28;20049;-64
2023/03/25 10:53:05;;;;;;;17.30;2.97;;;9.90;99.90;;;;;;5033258;28;20088;-65
2023/03/25 10:55:33;;;;;;;17.80;2.63;;;10.00;99.90;;;;;;5032834;28;20029;-65
2023/03/25 10:58:00;;;;;;;14.98;2.83;;;10.00;99.90;;;;;;5033506;28;20034;-65
2023/03/25 11:00:29;;;;;;;16.55;3.03;;;10.10;99.90;;;;;;5015261;28;20111;-65
2023/03/25 11:02:55;;;;;;;11.60;2.50;;;10.10;99.90;;;;;;5032859;28;20049;-67
2023/03/25 11:05:24;;;;;;;14.98;3.22;;;10.20;99.90;;;;;;5033535;28;20060;-66
2023/03/25 11:07:53;;;;;;;10.93;2.28;;;10.20;99.90;;;;;;5058797;22;20040;-68
2023/03/25 11:10:24;;;;;;;13.23;2.42;;;10.10;99.90;;;;;;5053624;28;20045;-68
2023/03/25 11:12:51;;;;;;;15.87;2.67;;;10.10;99.90;;;;;;5070302;28;20077;-67
2023/03/25 11:15:28;;;;;;;17.40;2.75;;;10.00;99.90;;;;;;5054885;28;20379;-68
2023/03/25 11:18:04;;;;;;;16.50;2.50;;;10.00;99.90;;;;;;5063833;28;20041;-68
2023/03/25 11:20:36;;;;;;;15.32;2.72;;;10.00;99.90;;;;;;5049779;28;20048;-67
2023/03/25 11:23:16;;;;;;;15.57;2.40;;;10.20;99.90;;;;;;5047914;28;20037;-67
2023/03/25 11:25:42;;;;;;;11.82;1.83;;;10.50;99.90;;;;;;5051041;28;20486;-66
2023/03/25 11:28:33;;;;;;;14.68;2.70;;;10.70;99.90;;;;;;5030039;28;20067;-66
2023/03/25 11:31:14;;;;;;;7.35;1.80;;;10.90;99.90;;;;;;5051320;28;20056;-67
2023/03/25 11:33:42;;;;;;;16.50;2.50;;;11.00;99.90;;;;;;5059796;28;20064;-66
2023/03/25 11:36:28;;;;;;;12.98;2.65;;;11.10;99.90;;;;;;5051035;28;20842;-66
2023/03/25 11:39:00;;;;;;;11.43;2.08;;;11.20;99.90;;;;;;5060041;28;20069;-66
2023/03/25 11:41:31;;;;;;;12.07;2.70;;;11.20;99.90;;;;;;5057775;28;20467;-66
2023/03/25 11:43:57;;;;;;;12.95;3.05;;;11.20;99.90;;;;;;5050358;28;20044;-66
2023/03/25 11:46:23;;;;;;;14.30;2.70;;;11.20;99.90;;;;;;5058707;28;20041;-66
2023/03/25 11:48:49;;;;;;;13.52;2.75;;;11.20;99.90;;;;;;5032562;28;20131;-66
2023/03/25 11:51:35;;;;;;;13.23;2.30;;;11.30;99.90;;;;;;5051570;28;20041;-66
2023/03/25 11:54:06;;;;;;;10.95;2.05;;;11.40;99.90;;;;;;5052068;28;20482;-66
2023/03/25 11:56:34;;;;;;;18.58;2.80;;;11.30;99.90;;;;;;5050764;28;20040;-66
2023/03/25 11:59:01;;;;;;;13.23;2.80;;;11.30;99.90;;;;;;5052724;28;20121;-66
2023/03/25 12:01:41;;;;;;;12.65;2.75;;;11.30;99.90;;;;;;5050643;28;20076;-66
2023/03/25 12:04:17;;;;;;;14.88;2.28;;;11.30;99.90;;;;;;5034151;28;20045;-66
2023/03/25 12:07:00;;;;;;;12.80;2.20;;;11.30;99.90;;;;;;5050971;28;20059;-65
2023/03/25 12:09:28;;;;;;;13.40;2.25;;;11.20;99.90;;;;;;5057968;28;20036;-65
2023/03/25 12:11:59;;;;;;;8.27;2.30;;;11.30;99.90;;;;;;5049945;28;20045;-65
2023/03/25 12:14:31;;;;;;;9.68;1.80;;;11.40;99.90;;;;;;5060147;28;20041;-66
2023/03/25 12:17:15;;;;;;;15.52;2.72;;;11.60;99.90;;;;;;5055706;28;20045;-66
2023/03/25 12:19:50;;;;;;;10.25;1.75;;;11.70;99.90;;;;;;5054242;28;20024;-65
2023/03/25 12:22:34;;;;;;;14.02;2.70;;;11.70;99.90;;;;;;5062196;28;20047;-66
2023/03/25 12:25:25;;;;;;;12.45;2.72;;;11.70;99.90;;;;;;5045192;28;20032;-66
2023/03/25 12:28:19;;;;;;;17.77;3.05;;;11.60;99.90;;;;;;5049628;28;20032;-66
2023/03/25 12:31:03;;;;;;;11.70;1.88;;;11.60;99.90;;;;;;5030938;28;20053;-66
2023/03/25 12:33:57;;;;;;;12.13;2.10;;;11.80;99.90;;;;;;5030399;28;20060;-66
2023/03/25 12:36:47;;;;;;;7.82;2.20;;;11.80;99.90;;;;;;5056822;28;20086;-67
2023/03/25 12:39:43;;;;;;;11.52;1.98;;;11.90;99.90;;;;;;5049013;28;20512;-66
2023/03/25 12:42:36;;;;;;;11.52;2.72;;;11.80;99.90;;;;;;5050641;28;20028;-66
2023/03/25 12:45:28;;;;;;;15.48;2.33;;;11.60;99.90;;;;;;5047499;28;20043;-66
2023/03/25 12:48:15;;;;;;;14.90;2.83;;;11.50;99.90;;;;;;5032642;28;20479;-66
2023/03/25 12:50:49;;;;;;;14.88;2.47;;;11.50;99.90;;;;;;5050722;28;20033;-66
2023/03/25 12:53:33;;;;;;;14.05;2.65;;;11.40;99.90;;;;;;5048214;28;20040;-67
2023/03/25 12:56:17;;;;;;;10.75;2.28;;;11.40;99.90;;;;;;5044456;28;20094;-67
2023/03/25 12:59:03;;;;;;;16.40;2.83;;;11.40;99.90;;;;;;5041852;28;20029;-66
2023/03/25 13:01:59;;;;;;;11.23;2.35;;;11.40;99.90;;;;;;5051229;28;20049;-66
2023/03/25 13:04:34;;;;;;;13.55;2.45;;;11.40;99.90;;;;;;5050942;28;20071;-66
2023/03/25 13:07:06;;;;;;;11.77;2.30;;;11.50;99.90;;;;;;5056612;28;20053;-66
2023/03/25 13:09:34;;;;;;;15.07;2.58;;;11.50;99.90;;;;;;5067969;28;20069;-66
2023/03/25 13:12:12;;;;;;;14.45;2.42;;;11.50;99.90;;;;;;5061590;28;20045;-66
2023/03/25 13:14:46;;;;;;;13.50;2.33;;;11.70;99.90;;;;;;5049169;28;20517;-66